Time;durP1;ratioP1;P1;durP2;ratioP2;P2;SDS_P1;SDS_P2;PMS_P1;PMS_P2;Temp;Humidity;BMP_temperature;BMP_pressure;BME280_temperature;BME280_humidity;BME280_pressure;Samples;Min_cycle;Max_cycle;Signal;HPM_P1;HPM_P2
2022/01/12 00:00:32;;;;;;;4.85;1.50;;;;;;;-6.37;100.00;101280.66;5084993;28;20062;-62
2022/01/12 00:03:17;;;;;;;3.75;1.63;;;;;;;-6.38;100.00;101294.31;5079999;28;20074;-61
2022/01/12 00:06:04;;;;;;;3.35;1.67;;;;;;;-6.35;100.00;101295.47;5092694;28;20070;-57
2022/01/12 00:08:49;;;;;;;3.45;1.50;;;;;;;-6.40;100.00;101290.75;5088041;28;20047;-60
2022/01/12 00:11:35;;;;;;;;;;;;;;;-6.48;100.00;101286.75;5055665;28;20067;-65
2022/01/12 00:14:20;;;;;;;;;;;;;;;-6.41;100.00;101302.75;5093057;28;19956;-63
2022/01/12 00:17:05;;;;;;;3.53;1.65;;;;;;;-6.62;100.00;101305.47;5089677;28;19927;-64
2022/01/12 00:19:50;;;;;;;4.05;1.70;;;;;;;-6.51;100.00;101302.00;5095340;28;20206;-63
2022/01/12 00:22:37;;;;;;;3.42;1.70;;;;;;;-6.47;100.00;101306.56;5077873;28;20066;-59
2022/01/12 00:25:26;;;;;;;3.30;1.30;;;;;;;-6.56;100.00;101295.63;5065941;28;20475;-62
2022/01/12 00:34:19;;;;;;;2.90;1.40;;;;;;;-6.38;100.00;101310.72;5072647;28;20051;-65
2022/01/12 00:37:04;;;;;;;2.88;1.20;;;;;;;-6.42;100.00;101307.78;5077318;28;20051;-65
2022/01/12 00:39:49;;;;;;;2.85;1.58;;;;;;;-6.59;100.00;101310.88;5064621;28;20054;-61
2022/01/12 00:42:34;;;;;;;;;;;;;;;-6.36;100.00;101318.56;5094077;28;20156;-65
2022/01/12 00:45:20;;;;;;;2.15;1.27;;;;;;;-6.43;100.00;101313.75;5103699;27;19976;-63
2022/01/12 00:48:05;;;;;;;2.70;1.42;;;;;;;-6.55;100.00;101306.03;5078034;28;20123;-67
2022/01/12 00:50:51;;;;;;;3.42;1.30;;;;;;;-6.54;100.00;101305.25;5071986;28;20387;-62
2022/01/12 00:53:36;;;;;;;4.00;1.90;;;;;;;-6.59;100.00;101305.72;5080253;27;20092;-61
2022/01/12 00:56:22;;;;;;;4.10;1.45;;;;;;;-6.52;100.00;101303.66;5089917;28;20130;-60
2022/01/12 00:59:09;;;;;;;4.88;1.20;;;;;;;-6.50;100.00;101303.78;5079404;27;20047;-62
2022/01/12 01:01:56;;;;;;;2.58;1.33;;;;;;;-6.65;100.00;101297.56;5083446;28;20073;-63
2022/01/12 01:04:43;;;;;;;3.92;1.45;;;;;;;-6.79;100.00;101299.13;5069902;28;20606;-64
2022/01/12 01:07:28;;;;;;;4.45;1.38;;;;;;;-6.84;100.00;101297.88;5088316;28;20553;-62
2022/01/12 01:10:18;;;;;;;;;;;;;;;-6.84;100.00;101307.31;5072046;28;20110;-62
2022/01/12 01:13:05;;;;;;;3.83;1.38;;;;;;;-6.89;100.00;101309.56;5038223;28;20329;-63
2022/01/12 01:27:52;;;;;;;4.90;1.48;;;;;;;-6.94;100.00;101300.59;5061687;28;20075;-65
2022/01/12 01:30:41;;;;;;;3.63;1.30;;;;;;;-7.01;100.00;101305.22;5083196;28;20192;-68
2022/01/12 01:33:28;;;;;;;2.92;1.45;;;;;;;-6.94;100.00;101305.75;5102182;28;20066;-65
2022/01/12 01:36:15;;;;;;;2.80;1.30;;;;;;;-7.07;100.00;101304.75;5071118;28;20054;-66
2022/01/12 01:39:04;;;;;;;2.22;1.25;;;;;;;-7.10;100.00;101307.09;5090360;28;20077;-64
2022/01/12 01:41:56;;;;;;;3.17;1.60;;;;;;;-7.11;100.00;101292.41;5057234;28;20864;-65
2022/01/12 01:53:37;;;;;;;3.22;1.27;;;;;;;-7.19;100.00;101288.38;5067459;28;20059;-63
2022/01/12 01:56:26;;;;;;;2.38;1.20;;;;;;;-7.15;100.00;101287.81;5051843;28;20055;-66
2022/01/12 01:59:11;;;;;;;3.22;1.50;;;;;;;-7.10;100.00;101292.53;5065856;28;20046;-65
2022/01/12 02:02:02;;;;;;;3.75;1.60;;;;;;;-7.26;100.00;101283.56;5085013;28;20078;-64
2022/01/12 02:04:48;;;;;;;2.85;1.35;;;;;;;-7.38;100.00;101285.22;5076465;28;20051;-65
2022/01/12 02:07:34;;;;;;;3.10;1.40;;;;;;;-7.24;100.00;101280.31;5076381;28;20046;-65
2022/01/12 02:10:21;;;;;;;3.83;1.67;;;;;;;-7.19;100.00;101267.78;5095207;28;20074;-63
2022/01/12 02:13:08;;;;;;;3.85;1.60;;;;;;;-7.29;100.00;101267.88;5073666;28;20673;-64
2022/01/12 02:15:58;;;;;;;3.38;1.27;;;;;;;-7.45;100.00;101267.53;5071985;28;20526;-65
2022/01/12 02:19:10;;;;;;;3.28;1.60;;;;;;;-7.34;100.00;101259.81;5073056;28;20053;-63
2022/01/12 02:40:33;;;;;;;5.65;1.70;;;;;;;-7.44;100.00;101252.19;5076577;28;20097;-66
2022/01/12 02:55:33;;;;;;;3.13;1.80;;;;;;;-7.33;100.00;101255.53;5069685;28;20055;-66
2022/01/12 02:58:19;;;;;;;2.67;1.48;;;;;;;-7.29;100.00;101244.69;5068232;28;20078;-64
2022/01/12 03:04:04;;;;;;;5.53;1.60;;;;;;;-7.58;100.00;101250.28;5074544;28;20047;-66
2022/01/12 03:06:51;;;;;;;5.45;1.65;;;;;;;-7.64;100.00;101251.50;5071802;28;20176;-72
2022/01/12 03:09:36;;;;;;;6.45;2.05;;;;;;;-7.44;100.00;101253.88;5069990;28;20074;-66
2022/01/12 03:12:21;;;;;;;6.18;2.10;;;;;;;-7.28;100.00;101249.06;5079919;28;20578;-68
2022/01/12 03:15:07;;;;;;;4.13;1.58;;;;;;;-7.18;100.00;101243.78;5081692;28;20042;-64
2022/01/12 03:17:52;;;;;;;3.30;1.50;;;;;;;-7.03;100.00;101256.13;5089133;28;20085;-63
2022/01/12 03:20:38;;;;;;;3.38;1.48;;;;;;;-7.12;100.00;101252.84;5094986;28;20051;-67
2022/01/12 03:23:24;;;;;;;4.03;1.90;;;;;;;-7.19;100.00;101248.06;5079772;28;20081;-66
2022/01/12 03:26:10;;;;;;;4.80;2.03;;;;;;;-7.32;100.00;101250.50;5063513;28;20066;-66
2022/01/12 03:28:57;;;;;;;4.97;1.98;;;;;;;-7.54;100.00;101253.97;5075072;28;20130;-65
2022/01/12 03:31:42;;;;;;;3.88;1.60;;;;;;;-7.54;100.00;101256.56;5069048;28;20059;-63
2022/01/12 03:34:31;;;;;;;4.45;1.67;;;;;;;-7.53;100.00;101251.50;5089841;28;20050;-65
2022/01/12 03:37:39;;;;;;;4.35;1.92;;;;;;;-7.51;100.00;101244.81;5082490;28;20410;-64
2022/01/12 03:40:23;;;;;;;3.90;1.67;;;;;;;-7.56;100.00;101246.13;5074574;28;20051;-63
2022/01/12 03:43:08;;;;;;;;;;;;;;;-7.32;100.00;101257.38;5078448;28;20101;-63
2022/01/12 03:45:53;;;;;;;3.70;1.77;;;;;;;-7.25;100.00;101254.44;5071422;28;20628;-63
2022/01/12 03:48:38;;;;;;;4.28;1.75;;;;;;;-7.27;100.00;101251.78;5055499;28;20100;-66
2022/01/12 03:51:24;;;;;;;5.30;2.05;;;;;;;-7.41;100.00;101242.13;5072151;28;20419;-68
2022/01/12 03:54:09;;;;;;;9.30;2.20;;;;;;;-7.52;100.00;101245.56;5076558;28;20132;-65
2022/01/12 03:56:58;;;;;;;4.03;1.55;;;;;;;-7.70;100.00;101246.81;5091055;28;20569;-62
2022/01/12 03:59:43;;;;;;;4.00;1.77;;;;;;;-7.44;100.00;101243.59;5082951;27;20050;-65
2022/01/12 04:02:28;;;;;;;3.28;1.55;;;;;;;-7.40;100.00;101251.63;5081733;28;20055;-62
2022/01/12 04:08:20;;;;;;;3.65;1.60;;;;;;;-7.37;100.00;101245.81;5074981;28;20051;-64
2022/01/12 04:11:06;;;;;;;4.53;2.03;;;;;;;-7.34;100.00;101244.38;5072980;28;20070;-63
2022/01/12 04:13:53;;;;;;;2.92;1.63;;;;;;;-7.42;100.00;101232.59;5062663;28;20047;-67
2022/01/12 04:16:40;;;;;;;3.05;1.80;;;;;;;-7.25;100.00;101250.19;5074133;28;20043;-64
2022/01/12 04:19:26;;;;;;;4.25;1.70;;;;;;;-7.36;100.00;101245.03;5087249;28;20458;-64
2022/01/12 04:25:17;;;;;;;4.55;2.05;;;;;;;-7.28;100.00;101255.09;5079781;28;20126;-62
2022/01/12 04:28:03;;;;;;;9.35;1.70;;;;;;;-7.29;100.00;101254.97;5067115;28;20098;-70
2022/01/12 04:30:49;;;;;;;3.90;1.80;;;;;;;-7.32;100.00;101252.22;5077457;28;20201;-65
2022/01/12 04:33:36;;;;;;;4.60;2.22;;;;;;;-7.19;100.00;101258.38;5080512;28;20525;-67
2022/01/12 04:36:20;;;;;;;3.22;1.42;;;;;;;-7.39;100.00;101256.03;5093004;28;20066;-68
2022/01/12 04:39:05;;;;;;;4.63;2.10;;;;;;;-7.36;100.00;101251.06;5071855;28;20129;-65
2022/01/12 04:41:50;;;;;;;6.30;1.80;;;;;;;-7.33;100.00;101256.47;5086177;28;20059;-70
2022/01/12 04:44:40;;;;;;;6.82;1.98;;;;;;;-7.28;100.00;101257.69;5063387;28;20054;-65
2022/01/12 04:47:45;;;;;;;5.90;1.90;;;;;;;-7.55;100.00;101260.81;5069117;28;20070;-67
2022/01/12 04:50:35;;;;;;;4.28;1.83;;;;;;;-7.57;100.00;101253.72;5064494;28;20055;-66
2022/01/12 04:53:21;;;;;;;6.43;2.13;;;;;;;-7.57;100.00;101256.31;5071262;28;20499;-66
2022/01/12 04:56:05;;;;;;;;;;;;;;;-7.49;100.00;101263.84;5073638;28;20046;-65
2022/01/12 04:58:50;;;;;;;6.57;2.10;;;;;;;-7.53;100.00;101263.47;5067847;28;20009;-63
2022/01/12 05:01:47;;;;;;;;;;;;;;;-7.33;100.00;101261.59;5094338;28;20097;-66
2022/01/12 05:07:46;;;;;;;3.85;1.60;;;;;;;-7.39;100.00;101257.69;5080770;28;20462;-71
2022/01/12 05:13:35;;;;;;;5.70;2.08;;;;;;;-7.61;100.00;101267.16;5084273;28;20097;-64
2022/01/12 05:16:22;;;;;;;4.03;1.50;;;;;;;-7.85;100.00;101252.47;5099444;27;20059;-65
2022/01/12 05:19:07;;;;;;;4.13;1.70;;;;;;;-7.88;100.00;101271.16;5085290;28;20046;-64
2022/01/12 05:21:52;;;;;;;4.32;2.05;;;;;;;-7.93;100.00;101271.56;5099724;28;20065;-62
2022/01/12 05:24:37;;;;;;;6.75;2.38;;;;;;;-7.79;100.00;101276.09;5084188;28;20054;-66
2022/01/12 05:27:22;;;;;;;3.83;2.03;;;;;;;-7.60;100.00;101272.44;5084134;27;20419;-64
2022/01/12 05:30:07;;;;;;;;;;;;;;;-7.56;100.00;101279.59;5087407;28;20100;-64
2022/01/12 05:32:53;;;;;;;4.28;1.70;;;;;;;-7.62;100.00;101275.69;5076603;28;19960;-63
2022/01/12 05:35:39;;;;;;;4.30;1.83;;;;;;;-7.87;100.00;101275.50;5095006;28;20079;-64
2022/01/12 05:38:28;;;;;;;4.80;1.70;;;;;;;-7.72;100.00;101260.34;5061083;28;20050;-64
2022/01/12 05:41:13;;;;;;;3.42;1.63;;;;;;;-7.82;100.00;101263.00;5073301;28;20131;-65
2022/01/12 05:43:58;;;;;;;;;;;;;;;-7.51;100.00;101256.78;5074569;28;20100;-62
2022/01/12 05:46:45;;;;;;;3.85;1.42;;;;;;;-7.67;100.00;101251.28;5100143;27;19964;-63
2022/01/12 05:49:41;;;;;;;4.47;1.60;;;;;;;-7.80;100.00;101251.16;5113211;27;20406;-63
2022/01/12 05:52:30;;;;;;;3.50;1.70;;;;;;;-7.78;100.00;101252.16;5091818;27;20100;-63
2022/01/12 05:55:16;;;;;;;3.15;1.85;;;;;;;-7.84;100.00;101244.84;5088916;28;20047;-64
2022/01/12 05:58:02;;;;;;;5.22;2.15;;;;;;;-7.74;100.00;101249.03;5058859;28;20058;-62
2022/01/12 06:00:49;;;;;;;3.65;1.70;;;;;;;-7.80;100.00;101249.44;5086899;28;20046;-64
2022/01/12 06:03:34;;;;;;;;;;;;;;;-7.91;100.00;101245.16;5096108;28;20580;-64
2022/01/12 06:06:20;;;;;;;5.15;2.40;;;;;;;-8.01;100.00;101253.00;5078648;28;19928;-62
2022/01/12 06:09:05;;;;;;;4.65;2.03;;;;;;;-7.97;100.00;101256.69;5105068;28;20506;-62
2022/01/12 06:11:50;;;;;;;3.03;1.50;;;;;;;-8.03;100.00;101253.66;5060560;28;20047;-66
2022/01/12 06:14:35;;;;;;;;;;;;;;;-7.94;100.00;101254.34;5067854;27;20111;-62
2022/01/12 06:17:22;;;;;;;5.82;1.92;;;;;;;-7.98;100.00;101257.47;5058110;28;19942;-63
2022/01/12 06:20:08;;;;;;;5.35;2.20;;;;;;;-7.95;100.00;101260.28;5086754;28;20204;-64
2022/01/12 06:23:08;;;;;;;3.55;1.67;;;;;;;-7.90;100.00;101261.50;5077823;27;20126;-63
2022/01/12 06:25:55;;;;;;;5.25;1.92;;;;;;;-7.96;100.00;101267.09;5097730;27;20059;-63
2022/01/12 06:28:53;;;;;;;4.78;1.98;;;;;;;-7.93;100.00;101269.91;5068907;28;20050;-61
2022/01/12 06:31:42;;;;;;;5.43;2.00;;;;;;;-7.96;100.00;101268.78;5090127;27;20092;-64
2022/01/12 06:34:27;;;;;;;3.00;1.52;;;;;;;-7.98;100.00;101283.19;5093463;28;20490;-61
2022/01/12 06:37:13;;;;;;;4.43;1.80;;;;;;;-8.13;100.00;101276.88;5065777;28;20043;-63
2022/01/12 06:39:58;;;;;;;;;;;;;;;-8.12;100.00;101279.56;5053626;28;20416;-62
2022/01/12 06:42:45;;;;;;;3.70;1.60;;;;;;;-8.27;100.00;101275.84;5067780;28;20268;-59
2022/01/12 06:45:30;;;;;;;4.60;1.90;;;;;;;-8.23;100.00;101274.44;5049109;27;20054;-61
2022/01/12 06:48:15;;;;;;;4.65;1.77;;;;;;;-8.17;100.00;101282.56;5084113;28;20096;-60
2022/01/12 06:51:00;;;;;;;;;;;;;;;-8.01;100.00;101278.72;5068076;28;20046;-63
2022/01/12 06:53:45;;;;;;;3.95;1.88;;;;;;;-8.09;100.00;101281.47;5053296;28;19927;-59
2022/01/12 06:56:31;;;;;;;5.38;1.70;;;;;;;-8.16;100.00;101274.09;5093550;28;20074;-61
2022/01/12 06:59:16;;;;;;;3.13;1.60;;;;;;;-8.32;100.00;101277.16;5067995;28;20043;-63
2022/01/12 07:02:01;;;;;;;6.13;2.28;;;;;;;-8.43;100.00;101264.28;5083023;28;20074;-61
2022/01/12 07:04:52;;;;;;;4.78;1.73;;;;;;;-8.30;100.00;101246.44;5095136;28;20065;-63
2022/01/12 07:07:41;;;;;;;3.90;1.92;;;;;;;-8.20;100.00;101265.22;5071480;28;20084;-61
2022/01/12 07:10:31;;;;;;;4.32;2.20;;;;;;;-8.30;100.00;101251.56;5084148;28;20096;-65
2022/01/12 07:13:24;;;;;;;3.28;1.83;;;;;;;-8.34;100.00;101260.75;5081651;28;20051;-63
2022/01/12 07:16:10;;;;;;;6.68;2.67;;;;;;;-8.30;100.00;101260.19;5071833;28;20050;-64
2022/01/12 07:18:59;;;;;;;4.07;2.25;;;;;;;-8.35;100.00;101242.63;5044531;28;20047;-63
2022/01/12 07:21:49;;;;;;;4.22;2.03;;;;;;;-8.30;100.00;101254.16;5072103;28;20043;-64
2022/01/12 07:24:34;;;;;;;5.20;2.63;;;;;;;-8.10;100.00;101257.44;5069498;28;20549;-67
2022/01/12 07:27:19;;;;;;;5.35;2.20;;;;;;;-7.94;100.00;101259.50;5095450;27;20079;-65
2022/01/12 07:30:04;;;;;;;3.72;2.08;;;;;;;-7.88;100.00;101257.41;5068386;27;20135;-66
2022/01/12 07:32:50;;;;;;;3.53;1.90;;;;;;;-7.75;100.00;101260.97;5099716;27;20050;-64
2022/01/12 07:35:34;;;;;;;;;;;;;;;-7.68;100.00;101268.38;5078707;28;20084;-65
2022/01/12 07:38:19;;;;;;;3.97;1.83;;;;;;;-7.84;100.00;101255.16;5096316;28;19930;-63
2022/01/12 07:41:04;;;;;;;5.22;2.00;;;;;;;-7.74;100.00;101259.31;5093535;28;20078;-63
2022/01/12 07:43:49;;;;;;;;;;;;;;;-7.63;100.00;101272.22;5082472;28;20081;-66
2022/01/12 07:46:36;;;;;;;4.82;2.20;;;;;;;-7.64;100.00;101252.38;5080245;28;19926;-65
2022/01/12 07:49:21;;;;;;;3.92;2.03;;;;;;;-7.52;100.00;101267.88;5072635;28;20128;-64
2022/01/12 07:52:06;;;;;;;7.10;2.50;;;;;;;-7.53;100.00;101271.22;5055634;28;20121;-64
2022/01/12 07:54:51;;;;;;;;;;;;;;;-7.39;100.00;101266.31;5075297;28;20512;-67
2022/01/12 07:57:42;;;;;;;4.55;2.40;;;;;;;-7.54;100.00;101267.75;5091409;28;19927;-66
2022/01/12 08:00:27;;;;;;;5.15;2.22;;;;;;;-6.29;100.00;101258.88;5093204;27;20050;-66
2022/01/12 08:03:12;;;;;;;3.97;2.17;;;;;;;-4.89;100.00;101261.50;5091995;28;20178;-65
2022/01/12 08:05:58;;;;;;;3.13;1.70;;;;;;;-3.50;94.68;101261.59;5091636;28;20051;-65
2022/01/12 08:08:43;;;;;;;5.75;2.40;;;;;;;-2.58;85.60;101252.28;5092782;28;20469;-63
2022/01/12 08:11:29;;;;;;;3.65;1.90;;;;;;;-2.07;79.85;101259.38;5060035;28;20112;-64
2022/01/12 08:14:15;;;;;;;4.10;1.80;;;;;;;-1.33;73.30;101252.09;5075372;28;20046;-65
2022/01/12 08:17:00;;;;;;;10.52;2.08;;;;;;;-1.14;69.18;101252.19;5086797;28;20126;-64
2022/01/12 08:19:45;;;;;;;3.67;2.05;;;;;;;-0.75;66.38;101240.25;5070367;28;20067;-66
2022/01/12 08:22:30;;;;;;;4.10;2.10;;;;;;;-0.84;63.04;101253.69;5095082;28;20051;-63
2022/01/12 08:25:16;;;;;;;5.60;2.13;;;;;;;-0.94;61.63;101250.56;5092464;28;20078;-63
2022/01/12 08:28:01;;;;;;;4.55;2.67;;;;;;;-1.10;61.76;101241.09;5081877;28;20055;-64
2022/01/12 08:30:46;;;;;;;3.70;2.15;;;;;;;0.10;57.91;101240.78;5085900;28;20050;-62
2022/01/12 08:33:32;;;;;;;2.72;1.80;;;;;;;-0.25;55.27;101233.06;5084477;28;20111;-67
2022/01/12 08:36:16;;;;;;;5.90;2.10;;;;;;;-1.64;55.81;101238.34;5069880;28;20136;-64
2022/01/12 08:39:03;;;;;;;4.95;2.47;;;;;;;-2.51;57.94;101236.22;5079160;28;20097;-65
2022/01/12 08:41:48;;;;;;;4.82;2.08;;;;;;;-2.82;60.60;101232.72;5075075;28;20419;-62
2022/01/12 08:44:35;;;;;;;4.05;2.35;;;;;;;-2.09;61.66;101238.50;5069574;28;20141;-65
2022/01/12 08:47:20;;;;;;;4.35;1.90;;;;;;;-0.45;58.27;101231.25;5100207;28;20411;-64
2022/01/12 08:50:07;;;;;;;4.57;2.25;;;;;;;0.98;54.06;101241.16;5082679;28;20063;-67
2022/01/12 08:52:52;;;;;;;3.80;2.00;;;;;;;1.52;48.42;101237.25;5110311;28;20058;-58
2022/01/12 08:55:36;;;;;;;4.43;2.15;;;;;;;2.32;43.32;101229.00;5105817;28;20051;-64
2022/01/12 08:58:21;;;;;;;5.07;2.15;;;;;;;3.53;41.49;101232.28;5062315;28;20415;-58
2022/01/12 09:01:06;;;;;;;5.68;2.55;;;;;;;4.06;36.41;101226.03;5083763;27;20082;-62
2022/01/12 09:03:50;;;;;;;4.93;2.70;;;;;;;4.77;34.63;101223.66;5099258;28;20047;-64
2022/01/12 09:06:36;;;;;;;3.65;2.20;;;;;;;5.26;32.91;101225.78;5082933;28;20051;-65
2022/01/12 09:09:22;;;;;;;5.32;2.45;;;;;;;5.21;30.42;101212.53;5099889;28;20098;-65
2022/01/12 09:12:07;;;;;;;5.45;2.38;;;;;;;4.82;31.01;101199.28;5101364;28;20131;-62
2022/01/12 09:14:53;;;;;;;3.95;2.33;;;;;;;4.75;31.61;101193.84;5081801;28;20613;-66
2022/01/12 09:17:38;;;;;;;4.40;2.80;;;;;;;5.11;31.17;101197.38;5084602;28;20051;-63
2022/01/12 09:20:24;;;;;;;5.55;3.03;;;;;;;5.40;31.25;101185.81;5094839;28;20047;-64
2022/01/12 09:23:09;;;;;;;4.10;2.45;;;;;;;5.49;28.28;101198.31;5102159;27;20153;-64
2022/01/12 09:25:53;;;;;;;3.88;2.40;;;;;;;5.68;28.38;101196.09;5075714;28;20054;-64
2022/01/12 09:28:39;;;;;;;4.97;2.67;;;;;;;6.22;28.67;101194.69;5097571;28;20173;-66
2022/01/12 09:31:28;;;;;;;3.50;2.47;;;;;;;7.20;27.50;101188.56;5117279;27;20057;-65
2022/01/12 09:34:18;;;;;;;4.40;2.45;;;;;;;7.04;26.60;101183.91;5108313;28;20564;-65
2022/01/12 09:37:03;;;;;;;3.90;2.42;;;;;;;6.41;26.77;101180.97;5101471;28;20047;-63
2022/01/12 09:39:47;;;;;;;;;;;;;;;6.70;29.74;101174.53;5087347;28;20071;-62
2022/01/12 09:42:33;;;;;;;3.90;2.50;;;;;;;6.91;26.68;101172.25;5059129;28;19934;-62
2022/01/12 09:45:20;;;;;;;4.70;3.00;;;;;;;7.29;25.27;101173.78;5075405;27;20046;-63
2022/01/12 09:48:09;;;;;;;4.38;2.83;;;;;;;7.57;24.70;101164.50;5099699;27;20095;-63
2022/01/12 09:50:58;;;;;;;4.72;2.85;;;;;;;7.79;24.71;101159.53;5089743;28;20727;-62
2022/01/12 09:53:44;;;;;;;4.95;2.80;;;;;;;7.70;25.03;101162.06;5080024;28;20542;-62
2022/01/12 09:56:31;;;;;;;6.20;2.58;;;;;;;7.76;24.30;101153.31;5080362;28;20171;-63
2022/01/12 09:59:24;;;;;;;4.43;2.65;;;;;;;8.20;24.04;101170.63;5085106;28;20054;-63
2022/01/12 10:02:21;;;;;;;4.13;2.25;;;;;;;8.46;23.61;101162.13;5099989;27;20556;-62
2022/01/12 10:05:08;;;;;;;4.68;2.58;;;;;;;8.00;23.03;101161.56;5088127;28;20046;-63
2022/01/12 10:07:54;;;;;;;4.32;2.63;;;;;;;8.21;23.51;101154.81;5091250;28;20469;-63
2022/01/12 10:10:40;;;;;;;4.05;2.40;;;;;;;8.44;22.91;101171.81;5078753;28;20047;-63
2022/01/12 10:13:25;;;;;;;5.68;3.08;;;;;;;8.66;22.14;101170.25;5078377;28;20173;-64
2022/01/12 10:16:16;;;;;;;3.70;2.72;;;;;;;8.88;22.10;101178.44;5090205;27;20637;-65
2022/01/12 10:19:02;;;;;;;4.72;2.75;;;;;;;7.93;22.26;101171.16;5089474;28;20288;-68
2022/01/12 10:21:50;;;;;;;4.65;2.72;;;;;;;7.47;23.23;101162.56;5087234;28;20078;-65
2022/01/12 10:24:44;;;;;;;4.20;3.10;;;;;;;7.34;24.33;101155.34;5080192;28;20096;-66
2022/01/12 10:27:39;;;;;;;3.95;2.60;;;;;;;8.18;23.77;101165.31;5074907;28;20516;-66
2022/01/12 10:30:27;;;;;;;4.47;2.70;;;;;;;7.47;23.34;101158.19;5104977;27;20045;-64
2022/01/12 10:33:17;;;;;;;3.78;2.40;;;;;;;6.52;23.78;101144.31;5100369;27;20050;-61
2022/01/12 10:36:06;;;;;;;4.78;3.00;;;;;;;4.49;25.95;101144.97;5120980;27;20736;-66
2022/01/12 10:38:52;;;;;;;5.57;2.80;;;;;;;3.08;27.99;101138.19;5058586;28;20090;-65
2022/01/12 10:42:01;;;;;;;5.63;2.83;;;;;;;2.60;29.48;101131.38;5070513;28;20047;-66
2022/01/12 10:44:52;;;;;;;4.95;2.80;;;;;;;1.48;31.16;101134.34;5071941;28;20050;-66
2022/01/12 10:47:38;;;;;;;5.80;3.25;;;;;;;0.59;34.02;101131.63;5104671;27;20070;-67
2022/01/12 10:50:26;;;;;;;7.43;2.95;;;;;;;0.25;36.06;101126.72;5078477;28;20112;-65
2022/01/12 10:53:12;;;;;;;6.03;3.22;;;;;;;-0.01;37.55;101114.25;5072505;28;20065;-68
2022/01/12 10:56:14;;;;;;;7.35;2.50;;;;;;;-0.16;39.80;101108.38;5085067;28;20129;-67
2022/01/12 10:59:05;;;;;;;5.55;2.83;;;;;;;-0.40;40.33;101109.91;5074181;27;20054;-70
2022/01/12 11:01:53;;;;;;;3.33;2.22;;;;;;;-0.74;41.38;101111.81;5097652;27;20046;-70
2022/01/12 11:04:41;;;;;;;4.28;2.58;;;;;;;-0.58;42.20;101119.50;5072687;28;20047;-69
2022/01/12 11:07:27;;;;;;;6.45;2.70;;;;;;;0.43;41.31;101122.25;5093762;28;20043;-67
2022/01/12 11:10:12;;;;;;;4.88;2.53;;;;;;;1.12;39.83;101118.97;5111982;27;20078;-69
2022/01/12 11:13:25;;;;;;;3.45;1.90;;;;;;;2.38;37.17;101124.53;5090966;27;20125;-69
2022/01/12 11:16:12;;;;;;;4.35;2.45;;;;;;;2.96;35.40;101122.09;5080585;27;20568;-72
2022/01/12 11:18:59;;;;;;;5.97;2.45;;;;;;;3.58;33.49;101124.91;5107661;27;20459;-65
2022/01/12 11:22:02;;;;;;;5.75;2.70;;;;;;;4.46;31.34;101111.66;5070442;28;20738;-66
2022/01/12 11:24:47;;;;;;;6.85;2.35;;;;;;;4.48;29.98;101119.56;5073875;28;20059;-63
2022/01/12 11:27:32;;;;;;;4.95;2.58;;;;;;;4.59;29.56;101113.72;5071455;28;20086;-66
2022/01/12 11:30:20;;;;;;;5.50;2.70;;;;;;;5.22;29.26;101114.38;5094243;28;20097;-65
2022/01/12 11:33:09;;;;;;;5.57;2.67;;;;;;;4.52;29.61;101103.03;5102102;28;20138;-62
2022/01/12 11:35:53;;;;;;;3.83;2.72;;;;;;;4.22;30.34;101103.13;5065683;28;20038;-63
2022/01/12 11:38:39;;;;;;;4.50;2.67;;;;;;;4.08;29.23;101099.25;5075685;28;20066;-66
2022/01/12 11:41:28;;;;;;;3.97;2.80;;;;;;;4.51;29.51;101096.88;5093908;28;20051;-67
2022/01/12 11:44:16;;;;;;;5.05;2.38;;;;;;;4.19;29.13;101089.91;5066051;28;20580;-65
2022/01/12 11:47:04;;;;;;;3.58;2.60;;;;;;;3.74;29.68;101070.31;5082076;28;20051;-71
2022/01/12 11:49:54;;;;;;;5.28;2.55;;;;;;;3.37;29.63;101066.59;5068527;28;20862;-66
2022/01/12 11:52:42;;;;;;;6.60;3.45;;;;;;;2.65;30.72;101065.22;5101656;27;20050;-68
2022/01/12 11:55:40;;;;;;;6.03;2.97;;;;;;;1.33;33.25;101057.97;5075826;28;20078;-65
2022/01/12 11:58:26;;;;;;;6.53;3.00;;;;;;;0.33;36.12;101057.50;5077623;28;20097;-65
2022/01/12 12:01:15;;;;;;;4.90;2.92;;;;;;;-0.27;38.19;101052.31;5086967;28;20046;-65
2022/01/12 12:04:04;;;;;;;6.88;3.00;;;;;;;-0.80;40.22;101049.94;5097625;28;20051;-72
2022/01/12 12:06:50;;;;;;;8.70;4.88;;;;;;;-1.45;42.70;101027.81;5077081;28;20184;-64
2022/01/12 12:09:48;;;;;;;9.07;4.85;;;;;;;-1.75;45.96;101039.31;5081504;28;20116;-66
2022/01/12 12:12:36;;;;;;;10.32;4.85;;;;;;;-2.12;48.03;101043.53;5095125;28;20560;-66
2022/01/12 12:15:25;;;;;;;9.20;4.30;;;;;;;-2.52;50.13;101036.22;5071347;28;20515;-64
2022/01/12 12:18:12;;;;;;;9.57;4.30;;;;;;;-2.89;53.02;101032.53;5109971;28;20045;-64
2022/01/12 12:20:58;;;;;;;9.77;3.35;;;;;;;-3.45;55.02;101034.63;5070379;28;20125;-66
2022/01/12 12:23:43;;;;;;;5.85;2.65;;;;;;;-3.77;58.23;101018.13;5089455;28;20124;-65
2022/01/12 12:26:30;;;;;;;6.45;2.92;;;;;;;-3.78;59.98;101022.41;5097264;28;20119;-66
2022/01/12 12:29:18;;;;;;;5.00;2.38;;;;;;;-4.07;62.19;101019.88;5089268;28;20050;-64
2022/01/12 12:32:06;;;;;;;6.22;3.10;;;;;;;-4.06;64.37;101008.72;5068872;27;20116;-68
2022/01/12 12:35:00;;;;;;;7.13;3.13;;;;;;;-3.93;65.45;101008.59;5086730;28;20070;-65
2022/01/12 12:37:53;;;;;;;7.40;3.03;;;;;;;-4.27;66.58;101012.66;5085355;28;20211;-66
2022/01/12 12:40:44;;;;;;;5.93;3.13;;;;;;;-4.66;69.09;101017.19;5075436;28;20582;-67
2022/01/12 12:43:36;;;;;;;5.75;3.20;;;;;;;-4.93;70.79;101025.09;5040150;28;20091;-66
2022/01/12 12:46:26;;;;;;;8.18;3.28;;;;;;;-5.05;72.91;101015.69;5049362;28;20054;-65
2022/01/12 12:49:12;;;;;;;5.90;2.83;;;;;;;-4.96;73.56;101016.22;5056740;28;20293;-65
2022/01/12 12:52:04;;;;;;;7.32;3.42;;;;;;;-4.75;73.63;101016.66;5056741;28;20048;-66
2022/01/12 12:54:48;;;;;;;5.80;2.72;;;;;;;-5.09;74.26;101013.72;5048936;28;20511;-62
2022/01/12 12:57:33;;;;;;;;;;;;;;;-5.19;74.84;101009.66;5059469;28;20046;-65
2022/01/12 13:00:22;;;;;;;6.53;2.83;;;;;;;-5.53;77.25;101010.06;5054578;28;19974;-68
2022/01/12 13:03:07;;;;;;;6.70;3.35;;;;;;;-5.74;78.59;101016.47;5052970;28;20043;-73
2022/01/12 13:05:52;;;;;;;6.13;3.00;;;;;;;-5.88;80.50;100994.97;5053565;28;20428;-67
2022/01/12 13:08:38;;;;;;;7.00;3.15;;;;;;;-5.80;81.29;101016.06;5058967;28;20113;-65
2022/01/12 13:11:34;;;;;;;8.00;3.97;;;;;;;-5.85;81.88;101002.03;5054210;28;20097;-64
2022/01/12 13:14:22;;;;;;;8.00;3.28;;;;;;;-6.03;83.63;101013.75;5055746;28;20048;-67
2022/01/12 13:17:07;;;;;;;8.13;3.13;;;;;;;-5.93;84.41;101005.81;5056334;28;20103;-65
2022/01/12 13:22:38;;;;;;;5.88;3.03;;;;;;;-6.21;85.06;101007.41;5056446;28;20047;-67
2022/01/12 13:25:23;;;;;;;8.55;3.42;;;;;;;-6.26;85.66;101001.94;5039831;28;20095;-65
2022/01/12 13:28:10;;;;;;;8.27;3.75;;;;;;;-6.20;86.51;101002.34;5021921;28;20088;-67
2022/01/12 13:31:02;;;;;;;6.60;3.03;;;;;;;-6.43;86.91;100997.34;5058233;28;20071;-68
2022/01/12 13:33:51;;;;;;;9.57;3.63;;;;;;;-6.62;88.57;101003.75;5061756;28;20163;-64
2022/01/12 13:36:35;;;;;;;7.65;3.38;;;;;;;-6.73;88.80;100999.59;5056699;28;20104;-60
2022/01/12 13:39:21;;;;;;;11.65;3.45;;;;;;;-6.63;89.22;100999.41;5055563;28;20114;-65
2022/01/12 13:42:06;;;;;;;7.85;2.92;;;;;;;-6.83;90.05;100994.59;5050458;28;20133;-63
2022/01/12 13:45:04;;;;;;;7.68;3.33;;;;;;;-6.90;91.23;101007.84;5058180;28;20055;-63
2022/01/12 13:48:01;;;;;;;9.07;3.88;;;;;;;-6.89;91.62;101004.50;5059711;28;20136;-62
2022/01/12 13:50:55;;;;;;;8.23;3.47;;;;;;;-7.14;92.24;101014.81;5059245;28;20528;-66
2022/01/12 13:53:42;;;;;;;9.50;3.58;;;;;;;-7.17;92.94;101004.28;5059052;28;20555;-63
2022/01/12 13:56:35;;;;;;;8.38;3.50;;;;;;;-7.51;93.75;100999.28;5062321;28;20098;-63
2022/01/12 13:59:26;;;;;;;10.60;3.72;;;;;;;-7.51;94.69;100999.28;5056155;28;20495;-64
2022/01/12 14:02:16;;;;;;;10.02;4.45;;;;;;;-7.42;95.04;100981.88;5061155;28;20181;-64
2022/01/12 14:05:08;;;;;;;9.68;3.58;;;;;;;-7.36;95.53;100982.31;5053802;28;20106;-65
2022/01/12 14:08:05;;;;;;;9.60;4.03;;;;;;;-7.39;95.16;100984.69;5070460;28;20789;-65
2022/01/12 14:10:54;;;;;;;10.20;3.90;;;;;;;-7.36;95.85;100990.94;5052979;28;20075;-64
2022/01/12 14:13:41;;;;;;;9.73;4.38;;;;;;;-7.55;96.16;100989.56;5061520;28;20044;-63
2022/01/12 14:16:32;;;;;;;;;;;;;;;-7.33;96.54;100980.84;5064253;28;20116;-63